Time;durP1;ratioP1;P1;durP2;ratioP2;P2;SDS_P1;SDS_P2;PMS_P1;PMS_P2;Temp;Humidity;BMP_temperature;BMP_pressure;BME280_temperature;BME280_humidity;BME280_pressure;Samples;Min_cycle;Max_cycle;Signal;HPM_P1;HPM_P2
2022/08/31 00:04:02;;;;;;;928.60;865.95;;;;;;;18.62;57.86;101808.72;693013;28;110534;-63
2022/08/31 00:04:24;;;;;;;927.05;864.50;;;;;;;18.61;57.70;101809.78;694049;28;70316;-63
2022/08/31 00:04:46;;;;;;;931.22;868.53;;;;;;;18.61;57.85;101817.97;694667;28;44384;-63
2022/08/31 00:05:08;;;;;;;925.60;863.03;;;;;;;18.59;57.99;101806.41;695601;28;21512;-62
2022/08/31 00:05:29;;;;;;;939.47;876.43;;;;;;;18.60;57.63;101818.19;694039;28;69158;-61
2022/08/31 00:05:56;;;;;;;930.28;867.50;;;;;;;18.60;57.62;101812.72;694854;28;44368;-63
2022/08/31 00:06:17;;;;;;;933.33;870.50;;;;;;;18.56;57.58;101804.06;691715;28;138963;-60
2022/08/31 00:06:38;;;;;;;937.30;874.28;;;;;;;18.56;57.59;101812.28;692743;28;22405;-62
2022/08/31 00:06:59;;;;;;;931.00;867.92;;;;;;;18.54;57.76;101812.50;693841;28;22430;-63
2022/08/31 00:07:21;;;;;;;931.97;868.83;;;;;;;18.52;57.90;101805.53;696900;28;21550;-63
2022/08/31 00:07:43;;;;;;;920.92;858.35;;;;;;;18.52;57.87;101808.25;697422;28;46443;-63
2022/08/31 00:08:04;;;;;;;917.47;855.15;;;;;;;18.51;58.05;101804.69;697563;28;45241;-63
2022/08/31 00:08:27;;;;;;;901.22;839.42;;;;;;;18.52;58.01;101802.78;698346;28;22163;-63
2022/08/31 00:08:48;;;;;;;906.70;844.70;;;;;;;18.52;58.14;101805.53;696497;28;69446;-63
2022/08/31 00:09:10;;;;;;;908.10;846.10;;;;;;;18.52;58.04;101808.25;695572;28;22377;-62
2022/08/31 00:09:31;;;;;;;908.33;846.15;;;;;;;18.50;58.12;101803.00;694908;28;46134;-62
2022/08/31 00:09:53;;;;;;;912.08;849.97;;;;;;;18.50;58.07;101807.63;695482;28;22453;-62
2022/08/31 00:10:17;;;;;;;913.05;851.10;;;;;;;18.49;58.01;101803.19;695517;28;27685;-62
2022/08/31 00:10:40;;;;;;;911.95;850.10;;;;;;;18.50;58.00;101802.16;693179;28;92289;-63
2022/08/31 00:11:01;;;;;;;907.22;845.45;;;;;;;18.46;58.20;101795.41;695152;28;67488;-62
2022/08/31 00:11:27;;;;;;;903.55;841.78;;;;;;;18.49;58.26;101805.94;698491;28;21669;-62
2022/08/31 00:11:48;;;;;;;914.67;852.28;;;;;;;18.46;58.16;101796.22;694157;28;113816;-63
2022/08/31 00:12:11;;;;;;;915.80;853.53;;;;;;;18.49;58.11;101800.47;698517;28;22410;-63
2022/08/31 00:12:32;;;;;;;913.65;851.50;;;;;;;18.49;58.11;101800.47;696896;28;69667;-62
2022/08/31 00:12:53;;;;;;;911.58;849.42;;;;;;;18.48;58.09;101796.88;695567;28;21346;-62
2022/08/31 00:13:14;;;;;;;918.20;855.65;;;;;;;18.50;58.21;101804.91;695567;28;22396;-63
2022/08/31 00:13:37;;;;;;;922.15;859.50;;;;;;;18.49;58.04;101800.47;695446;28;22406;-62
2022/08/31 00:14:01;;;;;;;924.03;861.28;;;;;;;18.48;58.23;101799.63;694867;28;69377;-62
2022/08/31 00:14:24;;;;;;;916.85;854.53;;;;;;;18.46;58.22;101796.22;695410;28;91201;-63
2022/08/31 00:14:46;;;;;;;918.72;856.38;;;;;;;18.46;58.33;101798.13;696888;28;67510;-63
2022/08/31 00:15:08;;;;;;;920.08;857.63;;;;;;;18.47;58.41;101800.66;697118;28;46686;-63
2022/08/31 00:15:31;;;;;;;929.28;866.30;;;;;;;18.49;58.32;101800.47;696478;28;69519;-62
2022/08/31 00:15:53;;;;;;;929.05;866.05;;;;;;;18.48;58.38;101802.34;697103;28;44403;-62
2022/08/31 00:16:15;;;;;;;930.50;867.47;;;;;;;18.49;58.18;101803.19;697329;28;44475;-62
2022/08/31 00:16:42;;;;;;;924.75;862.17;;;;;;;18.48;58.03;101796.88;697661;28;46240;-61
2022/08/31 00:17:04;;;;;;;926.97;863.97;;;;;;;18.48;58.11;101796.88;692246;28;157609;-62
2022/08/31 00:17:25;;;;;;;928.83;865.80;;;;;;;18.48;58.08;101799.63;697357;28;46894;-62
2022/08/31 00:17:48;;;;;;;928.72;866.10;;;;;;;18.49;58.07;101795.00;699061;28;1302;-61
2022/08/31 00:18:10;;;;;;;925.47;862.83;;;;;;;18.48;58.23;101796.03;697524;28;46403;-61
2022/08/31 00:18:32;;;;;;;931.83;869.05;;;;;;;18.48;58.32;101804.22;698455;28;21553;-61
2022/08/31 00:18:53;;;;;;;930.10;867.33;;;;;;;18.49;58.42;101803.19;697498;28;46276;-62
2022/08/31 00:19:14;;;;;;;936.50;873.50;;;;;;;18.49;58.30;101800.47;698345;28;21524;-60
2022/08/31 00:19:36;;;;;;;933.97;871.08;;;;;;;18.50;58.36;101803.00;697590;28;46810;-61
2022/08/31 00:19:57;;;;;;;925.70;863.05;;;;;;;18.52;58.28;101802.78;698361;28;22600;-62
2022/08/31 00:20:20;;;;;;;923.53;860.97;;;;;;;18.51;58.38;101804.69;698238;28;22413;-62
2022/08/31 00:20:43;;;;;;;925.58;863.08;;;;;;;18.52;58.25;101797.31;696772;28;69454;-62
2022/08/31 00:21:04;;;;;;;936.88;873.95;;;;;;;18.52;58.16;101792.69;697293;28;68972;-62
2022/08/31 00:21:26;;;;;;;953.20;889.78;;;;;;;18.52;58.24;101794.59;699442;28;46423;-61
2022/08/31 00:21:47;;;;;;;954.75;891.13;;;;;;;18.51;58.08;101793.75;697406;28;22333;-62
2022/08/31 00:22:09;;;;;;;958.75;895.13;;;;;;;18.48;58.19;101796.88;697573;28;44357;-61
2022/08/31 00:22:31;;;;;;;963.83;899.97;;;;;;;18.49;58.25;101795.81;697474;28;44320;-62
2022/08/31 00:22:52;;;;;;;963.88;900.08;;;;;;;18.49;58.33;101798.56;698310;28;21401;-62
2022/08/31 00:23:15;;;;;;;968.47;904.50;;;;;;;18.50;58.27;101799.41;697650;28;44381;-61
2022/08/31 00:23:37;;;;;;;963.65;899.95;;;;;;;18.50;58.26;101799.41;697438;28;44375;-62
2022/08/31 00:23:58;;;;;;;964.40;900.67;;;;;;;18.50;58.36;101800.25;697535;28;45233;-61
2022/08/31 00:24:20;;;;;;;980.25;915.95;;;;;;;18.53;58.29;101801.75;697684;28;44407;-63
2022/08/31 00:24:41;;;;;;;980.88;916.55;;;;;;;18.51;58.64;101799.22;698213;28;22386;-62
2022/08/31 00:25:03;;;;;;;991.10;926.38;;;;;;;18.52;58.23;101800.88;697618;28;44183;-62
2022/08/31 00:25:26;;;;;;;982.47;918.05;;;;;;;18.51;58.02;101801.94;698400;28;22405;-62
2022/08/31 00:25:49;;;;;;;974.63;910.33;;;;;;;18.51;58.13;101806.56;696606;28;70172;-62
2022/08/31 00:26:11;;;;;;;976.33;912.03;;;;;;;18.48;58.30;101796.88;696012;28;92228;-62
2022/08/31 00:26:32;;;;;;;978.75;914.42;;;;;;;18.48;58.28;101802.34;698624;28;21534;-62
2022/08/31 00:26:54;;;;;;;984.20;919.53;;;;;;;18.49;58.26;101798.56;702314;27;21477;-62
2022/08/31 00:27:16;;;;;;;992.92;927.83;;;;;;;18.49;58.60;101808.66;701583;28;984;-62
2022/08/31 00:27:37;;;;;;;985.90;921.30;;;;;;;18.50;58.29;101804.91;700749;28;23384;-62
2022/08/31 00:27:59;;;;;;;973.67;909.35;;;;;;;18.50;58.40;101802.16;700089;28;44379;-62
2022/08/31 00:28:21;;;;;;;968.00;904.03;;;;;;;18.49;58.39;101801.28;700073;28;22379;-62
2022/08/31 00:28:43;;;;;;;980.65;915.97;;;;;;;18.48;58.30;101796.88;690661;28;67616;-62
2022/08/31 00:29:04;;;;;;;983.38;918.67;;;;;;;18.48;58.09;101794.16;693342;28;22275;-62
2022/08/31 00:29:26;;;;;;;977.17;912.95;;;;;;;18.45;58.54;101793.69;694733;28;46378;-62
2022/08/31 00:29:48;;;;;;;972.40;908.30;;;;;;;18.48;58.33;101805.09;694073;28;46397;-61
2022/08/31 00:30:12;;;;;;;977.17;912.78;;;;;;;18.47;58.40;101800.66;694444;28;45320;-62
2022/08/31 00:30:33;;;;;;;979.00;914.75;;;;;;;18.49;58.38;101798.56;694041;28;92213;-59
2022/08/31 00:30:55;;;;;;;978.92;914.63;;;;;;;18.49;58.25;101808.66;698267;28;22384;-61
2022/08/31 00:31:16;;;;;;;982.43;918.00;;;;;;;18.49;58.23;101811.41;697986;28;22560;-61
2022/08/31 00:31:40;;;;;;;978.72;914.40;;;;;;;18.51;58.34;101803.81;695912;28;92249;-63
2022/08/31 00:32:02;;;;;;;988.88;924.08;;;;;;;18.49;58.21;101808.66;696432;28;24435;-62
2022/08/31 00:32:23;;;;;;;984.67;920.08;;;;;;;18.49;58.36;101803.19;694055;28;69430;-62
2022/08/31 00:32:45;;;;;;;980.13;915.72;;;;;;;18.47;58.34;101800.66;695399;28;22358;-62
2022/08/31 00:33:06;;;;;;;976.13;911.88;;;;;;;18.45;58.24;101804.63;697652;28;22384;-61
2022/08/31 00:33:29;;;;;;;980.95;916.53;;;;;;;18.47;58.45;101805.31;699731;28;44358;-63
2022/08/31 00:33:51;;;;;;;991.95;927.10;;;;;;;18.47;58.46;101806.13;695874;28;44378;-62
2022/08/31 00:34:12;;;;;;;985.10;920.42;;;;;;;18.43;58.29;101793.06;694770;28;67457;-62
2022/08/31 00:34:33;;;;;;;985.22;920.63;;;;;;;18.49;58.36;101803.19;698255;28;22403;-62
2022/08/31 00:34:55;;;;;;;985.38;920.75;;;;;;;18.50;58.54;101805.72;695751;28;23394;-63
2022/08/31 00:35:18;;;;;;;987.20;922.38;;;;;;;18.49;58.38;101798.56;697170;28;46185;-63
2022/08/31 00:35:40;;;;;;;977.33;912.97;;;;;;;18.50;58.34;101794.78;699288;28;69184;-64
2022/08/31 00:36:02;;;;;;;985.80;921.03;;;;;;;18.51;58.18;101807.44;696503;28;69092;-63
2022/08/31 00:36:25;;;;;;;986.78;922.03;;;;;;;18.52;58.43;101809.09;699062;28;928;-63
2022/08/31 00:36:47;;;;;;;972.78;908.67;;;;;;;18.52;58.38;101805.53;695827;28;69446;-63
2022/08/31 00:37:08;;;;;;;978.08;913.55;;;;;;;18.52;58.42;101808.25;696688;28;45261;-65
2022/08/31 00:37:30;;;;;;;988.40;923.85;;;;;;;18.53;58.23;101808.06;695352;28;23441;-63
2022/08/31 00:37:51;;;;;;;972.13;908.20;;;;;;;18.51;58.32;101799.22;695170;28;22394;-64
2022/08/31 00:38:12;;;;;;;973.78;909.70;;;;;;;18.51;58.26;101801.09;695333;28;22473;-63
2022/08/31 00:38:35;;;;;;;975.45;911.33;;;;;;;18.51;58.08;101798.34;695751;28;21563;-63
2022/08/31 00:38:57;;;;;;;981.83;917.33;;;;;;;18.44;58.18;101797.50;693535;28;69313;-64
2022/08/31 00:39:18;;;;;;;980.95;916.55;;;;;;;18.45;58.25;101805.50;690003;28;46435;-63
2022/08/31 00:39:41;;;;;;;987.03;922.38;;;;;;;18.45;58.43;101794.56;689117;28;46323;-63
2022/08/31 00:40:03;;;;;;;990.80;926.08;;;;;;;18.44;58.49;101802.97;689200;28;46440;-62
2022/08/31 00:40:25;;;;;;;991.47;926.67;;;;;;;18.44;58.31;101802.97;689072;28;46750;-62
2022/08/31 00:40:47;;;;;;;981.65;917.25;;;;;;;18.43;58.42;101802.13;690101;28;45244;-63
2022/08/31 00:41:10;;;;;;;981.35;916.92;;;;;;;18.41;58.69;101795.16;691741;28;46297;-59
2022/08/31 00:41:34;;;;;;;975.08;910.90;;;;;;;18.42;58.46;101794.97;692311;28;69206;-62
2022/08/31 00:41:55;;;;;;;981.65;917.22;;;;;;;18.44;58.64;101797.50;688804;28;92193;-64
2022/08/31 00:42:17;;;;;;;971.45;907.42;;;;;;;18.42;58.62;101794.97;692579;28;24289;-63
2022/08/31 00:42:38;;;;;;;982.40;918.00;;;;;;;18.43;58.62;101790.34;691676;28;45243;-62
2022/08/31 00:43:00;;;;;;;993.33;928.45;;;;;;;18.43;58.51;101799.41;692424;28;23673;-64
2022/08/31 00:43:40;;;;;;;986.47;921.85;;;;;;;18.42;58.61;101794.13;693226;28;69395;-61
2022/08/31 00:44:03;;;;;;;993.28;928.38;;;;;;;18.42;58.64;101797.69;691298;28;135985;-63
2022/08/31 00:44:26;;;;;;;982.28;917.97;;;;;;;18.43;58.57;101796.66;692985;28;90636;-63
2022/08/31 00:44:48;;;;;;;981.05;916.75;;;;;;;18.43;58.51;101795.81;691997;28;46332;-63
2022/08/31 00:45:09;;;;;;;986.15;921.70;;;;;;;18.43;58.51;101798.53;691063;28;69404;-63
2022/08/31 00:45:31;;;;;;;986.88;922.42;;;;;;;18.42;58.69;101792.22;692603;28;22412;-63
2022/08/31 00:45:52;;;;;;;995.50;930.70;;;;;;;18.41;58.49;101790.53;692409;28;21676;-61
2022/08/31 00:46:18;;;;;;;993.35;928.65;;;;;;;18.42;58.50;101786.75;692714;28;23350;-63
2022/08/31 00:46:41;;;;;;;981.08;916.72;;;;;;;18.42;58.61;101791.41;686954;28;136338;-63
2022/08/31 00:47:03;;;;;;;988.65;923.72;;;;;;;18.41;58.45;101786.97;695340;28;65456;-63
2022/08/31 00:47:24;;;;;;;994.40;929.35;;;;;;;18.40;58.72;101793.47;697150;28;47142;-63
2022/08/31 00:47:46;;;;;;;991.88;927.20;;;;;;;18.40;58.49;101794.34;696760;28;22390;-63
2022/08/31 00:48:07;;;;;;;980.25;915.97;;;;;;;18.37;58.60;101795.56;693736;28;69429;-62
2022/08/31 00:48:29;;;;;;;984.75;920.25;;;;;;;18.36;58.77;101787.56;695209;28;23571;-61
2022/08/31 00:48:56;;;;;;;984.58;920.17;;;;;;;18.37;58.78;101790.09;695116;28;23393;-63
2022/08/31 00:49:20;;;;;;;994.47;929.58;;;;;;;18.36;58.63;101793.88;690473;28;160610;-62
2022/08/31 00:49:42;;;;;;;990.25;925.63;;;;;;;18.35;58.75;101794.09;692175;28;115303;-62
2022/08/31 00:50:06;;;;;;;986.08;921.67;;;;;;;18.34;58.77;101795.16;694048;28;45206;-63
2022/08/31 00:50:27;;;;;;;1002.13;937.30;;;;;;;18.32;58.76;101794.47;693020;28;92016;-63
2022/08/31 00:50:48;;;;;;;988.42;923.92;;;;;;;18.32;58.71;101800.81;694885;28;19961;-62
2022/08/31 00:51:12;;;;;;;981.75;917.45;;;;;;;18.31;58.79;101790.91;695412;28;23275;-62
2022/08/31 00:51:47;;;;;;;982.00;917.72;;;;;;;18.31;58.73;101790.91;692270;28;96907;-61
2022/08/31 00:52:12;;;;;;;975.60;911.38;;;;;;;18.30;58.77;101804.78;693723;28;138115;-63
2022/08/31 00:52:37;;;;;;;985.30;920.88;;;;;;;18.30;58.85;101802.06;695835;28;92044;-61
2022/08/31 00:53:00;;;;;;;976.47;912.17;;;;;;;18.28;59.05;101796.78;693906;28;137988;-61
2022/08/31 00:53:22;;;;;;;972.65;908.55;;;;;;;18.29;59.10;101803.97;696089;28;69396;-62
2022/08/31 00:53:44;;;;;;;982.28;917.88;;;;;;;18.29;58.97;101800.34;696766;28;46387;-63
2022/08/31 00:54:07;;;;;;;981.13;916.75;;;;;;;18.29;59.15;101797.63;697837;28;21538;-62
2022/08/31 00:54:30;;;;;;;983.70;919.20;;;;;;;18.27;58.87;101802.47;692299;28;92271;-62
2022/08/31 00:54:54;;;;;;;977.03;912.83;;;;;;;18.27;58.95;101802.47;693447;28;67477;-63
2022/08/31 00:55:17;;;;;;;996.63;931.67;;;;;;;18.26;58.80;101803.50;692817;28;92281;-63
2022/08/31 00:55:39;;;;;;;986.65;922.05;;;;;;;18.27;58.91;101800.56;695441;28;69414;-62
2022/08/31 00:56:01;;;;;;;972.63;908.55;;;;;;;18.27;58.97;101803.28;694355;28;44438;-61
2022/08/31 00:56:22;;;;;;;979.78;915.47;;;;;;;18.27;59.17;101805.19;693206;28;45217;-63
2022/08/31 00:56:44;;;;;;;977.50;913.28;;;;;;;18.27;59.18;101797.81;691766;28;22434;-63
2022/08/31 00:57:07;;;;;;;989.70;924.50;;;;;;;18.30;59.27;101802.06;691161;28;44384;-62
2022/08/31 00:57:30;;;;;;;985.97;921.30;;;;;;;18.31;58.98;101807.31;691063;28;69221;-63
2022/08/31 00:57:53;;;;;;;978.40;913.95;;;;;;;18.32;58.99;101802.69;691982;28;69530;-63
2022/08/31 00:58:14;;;;;;;976.85;912.47;;;;;;;18.31;58.91;101798.28;694711;28;69449;-63
2022/08/31 00:58:36;;;;;;;978.10;913.75;;;;;;;18.31;58.95;101807.31;692347;28;23739;-64
2022/08/31 00:58:59;;;;;;;975.28;910.97;;;;;;;18.28;58.97;101807.72;688239;28;44385;-64
2022/08/31 00:59:21;;;;;;;970.75;906.63;;;;;;;18.32;59.02;101800.81;688360;28;67337;-64
2022/08/31 00:59:43;;;;;;;984.38;919.80;;;;;;;18.32;59.05;101803.56;686254;28;45253;-62
2022/08/31 01:00:10;;;;;;;973.25;909.15;;;;;;;18.30;58.85;101802.88;687293;28;46460;-62
2022/08/31 01:00:31;;;;;;;974.38;910.17;;;;;;;18.32;59.11;101805.44;684718;28;136303;-60
2022/08/31 01:00:53;;;;;;;961.78;898.03;;;;;;;18.30;59.01;101802.88;691223;28;23395;-62
2022/08/31 01:01:14;;;;;;;968.40;904.42;;;;;;;18.28;59.02;101799.53;689504;28;46502;-62
2022/08/31 01:01:36;;;;;;;966.50;902.60;;;;;;;18.31;58.93;101803.75;691416;28;21619;-61
2022/08/31 01:01:57;;;;;;;978.05;913.83;;;;;;;18.30;59.03;101805.63;692171;28;46396;-62
2022/08/31 01:02:19;;;;;;;970.22;906.40;;;;;;;18.30;58.97;101804.78;692357;28;46383;-62
2022/08/31 01:02:40;;;;;;;965.30;901.72;;;;;;;18.29;59.08;101803.09;695337;28;23618;-62
2022/08/31 01:03:04;;;;;;;970.75;906.88;;;;;;;18.28;58.85;101799.53;695044;28;23409;-62
2022/08/31 01:03:26;;;;;;;962.40;898.78;;;;;;;18.31;58.93;101809.22;692835;28;93016;-62
2022/08/31 01:03:47;;;;;;;961.35;897.72;;;;;;;18.29;58.97;101805.81;694272;28;45051;-62
2022/08/31 01:04:08;;;;;;;967.08;903.20;;;;;;;18.27;59.04;101803.28;695267;28;22408;-62
2022/08/31 01:04:30;;;;;;;975.45;911.38;;;;;;;18.28;59.15;101809.63;692052;28;45400;-62
2022/08/31 01:04:52;;;;;;;984.53;920.05;;;;;;;18.30;59.12;101810.25;692307;28;22379;-62
2022/08/31 01:05:15;;;;;;;967.75;903.80;;;;;;;18.31;59.10;101809.22;691109;28;69709;-63
2022/08/31 01:05:37;;;;;;;961.05;897.50;;;;;;;18.33;59.30;101812.59;689999;28;46330;-61
2022/08/31 01:05:58;;;;;;;974.95;910.80;;;;;;;18.33;58.94;101813.44;689052;28;46279;-62
2022/08/31 01:06:21;;;;;;;976.53;912.28;;;;;;;18.34;59.12;101811.56;687999;28;21530;-62
2022/08/31 01:06:43;;;;;;;975.53;911.30;;;;;;;18.34;58.89;101808.81;688767;28;69460;-62
2022/08/31 01:07:05;;;;;;;971.25;906.90;;;;;;;18.34;58.91;101812.38;691073;28;44540;-61
2022/08/31 01:07:27;;;;;;;971.97;907.88;;;;;;;18.35;58.91;101805.03;689499;28;69451;-62
2022/08/31 01:07:50;;;;;;;973.10;909.05;;;;;;;18.35;59.09;101813.22;693296;28;23487;-62
2022/08/31 01:08:11;;;;;;;975.55;911.35;;;;;;;18.35;59.06;101814.09;690907;28;69222;-62
2022/08/31 01:08:32;;;;;;;964.83;901.00;;;;;;;18.36;58.99;101809.44;693349;28;23423;-62
2022/08/31 01:08:55;;;;;;;961.88;898.25;;;;;;;18.33;59.00;101807.13;694401;28;44392;-62
2022/08/31 01:09:18;;;;;;;954.80;891.38;;;;;;;18.34;58.83;101804.19;694379;28;46315;-62
2022/08/31 01:09:41;;;;;;;972.97;908.85;;;;;;;18.33;58.86;101807.13;694708;28;67313;-60
2022/08/31 01:10:03;;;;;;;970.28;906.17;;;;;;;18.31;58.93;101812.78;696363;28;69756;-62
2022/08/31 01:10:28;;;;;;;966.22;902.38;;;;;;;18.30;58.90;101807.53;696638;28;70195;-61
2022/08/31 01:10:50;;;;;;;963.63;899.90;;;;;;;18.30;59.10;101811.09;695928;28;92088;-60
2022/08/31 01:11:15;;;;;;;972.80;908.65;;;;;;;18.30;59.03;101813.00;694139;28;138083;-62
2022/08/31 01:11:38;;;;;;;973.55;909.42;;;;;;;18.29;58.98;101809.44;695446;28;22362;-63
2022/08/31 01:11:59;;;;;;;956.55;892.97;;;;;;;18.29;59.06;101811.28;692897;28;68155;-62
2022/08/31 01:12:22;;;;;;;964.92;901.15;;;;;;;18.29;59.02;101814.03;694358;28;46378;-62
2022/08/31 01:12:44;;;;;;;971.00;907.00;;;;;;;18.27;59.18;101813.41;694333;28;44341;-62
2022/08/31 01:13:06;;;;;;;963.97;900.22;;;;;;;18.28;58.94;101815.09;694668;28;68328;-60
2022/08/31 01:13:29;;;;;;;971.90;907.92;;;;;;;18.27;58.99;101818.88;697891;28;21521;-62
2022/08/31 01:13:50;;;;;;;958.67;895.00;;;;;;;18.26;58.93;101815.28;696075;28;67625;-61
2022/08/31 01:14:12;;;;;;;969.35;905.33;;;;;;;18.27;59.13;101816.13;694750;28;44311;-60
2022/08/31 01:14:34;;;;;;;967.50;903.67;;;;;;;18.26;59.08;101809.84;692616;28;45297;-60
2022/08/31 01:14:55;;;;;;;974.75;910.75;;;;;;;18.25;58.97;101808.13;694853;28;22376;-60
2022/08/31 01:15:19;;;;;;;968.13;904.22;;;;;;;18.26;58.91;101815.28;692980;28;46329;-62
2022/08/31 01:15:44;;;;;;;965.08;901.33;;;;;;;18.26;59.07;101814.44;691686;28;92495;-62
2022/08/31 01:16:11;;;;;;;967.92;904.03;;;;;;;18.23;59.02;101810.22;689637;28;136344;-63
2022/08/31 01:16:33;;;;;;;966.72;902.92;;;;;;;18.21;59.16;101815.03;691028;28;115094;-62
2022/08/31 01:16:55;;;;;;;966.03;902.08;;;;;;;18.18;59.18;101807.25;690692;28;69406;-62
2022/08/31 01:17:17;;;;;;;977.47;912.78;;;;;;;18.19;59.13;101812.50;691478;28;45293;-62
2022/08/31 01:17:39;;;;;;;969.97;905.92;;;;;;;18.16;59.19;101804.69;689955;28;21514;-62
2022/08/31 01:18:03;;;;;;;973.50;909.33;;;;;;;18.19;59.32;101811.66;689592;28;69357;-62
2022/08/31 01:18:24;;;;;;;972.90;908.90;;;;;;;18.19;59.37;101817.97;691400;28;92316;-62
2022/08/31 01:18:46;;;;;;;970.47;906.47;;;;;;;18.19;59.43;101814.41;692666;28;22400;-62
2022/08/31 01:19:16;;;;;;;964.58;900.75;;;;;;;18.17;59.37;101813.78;691804;28;45226;-63
2022/08/31 01:19:42;;;;;;;970.40;906.40;;;;;;;18.16;59.42;101810.19;688284;28;137476;-62
2022/08/31 01:20:09;;;;;;;974.90;910.70;;;;;;;18.13;59.34;101810.56;685833;28;137668;-62
2022/08/31 01:20:35;;;;;;;964.03;900.33;;;;;;;18.14;59.35;101808.72;685645;28;138175;-62
2022/08/31 01:21:05;;;;;;;972.00;907.85;;;;;;;18.18;59.50;101809.97;686555;28;137824;-63
2022/08/31 01:21:30;;;;;;;967.78;903.88;;;;;;;18.18;59.38;101815.44;688699;28;136129;-62
2022/08/31 01:21:54;;;;;;;962.97;899.05;;;;;;;18.18;59.34;101818.16;694890;28;115077;-62
2022/08/31 01:22:23;;;;;;;954.78;891.30;;;;;;;18.17;59.35;101811.88;698484;28;90314;-62
2022/08/31 01:22:55;;;;;;;965.63;901.83;;;;;;;18.16;59.35;101810.19;694150;28;136156;-62
2022/08/31 01:23:20;;;;;;;968.60;904.60;;;;;;;18.17;59.45;101814.59;693858;28;98848;-60
2022/08/31 01:23:43;;;;;;;964.75;901.00;;;;;;;18.16;59.40;101812.91;691515;28;114911;-60
2022/08/31 01:24:06;;;;;;;965.97;902.10;;;;;;;18.15;59.54;101805.78;690815;28;67460;-62
2022/08/31 01:24:28;;;;;;;958.60;895.00;;;;;;;18.14;59.31;101808.72;691371;28;52410;-63
2022/08/31 01:24:51;;;;;;;962.97;899.17;;;;;;;18.14;59.41;101811.44;693435;28;46617;-62
2022/08/31 01:25:13;;;;;;;970.70;906.42;;;;;;;18.12;59.27;101810.78;695497;28;57685;-63
2022/08/31 01:25:35;;;;;;;970.13;906.10;;;;;;;18.10;59.67;101810.13;697232;28;44268;-62
2022/08/31 01:25:57;;;;;;;970.38;906.20;;;;;;;18.10;59.50;101812.88;695381;28;46736;-63
2022/08/31 01:26:24;;;;;;;955.83;892.47;;;;;;;18.08;59.65;101812.25;698313;28;46282;-60
2022/08/31 01:26:47;;;;;;;969.38;905.63;;;;;;;18.08;59.75;101814.97;695970;28;138670;-61
2022/08/31 01:27:08;;;;;;;974.25;909.83;;;;;;;18.08;59.69;101812.25;695952;28;69414;-63
2022/08/31 01:27:33;;;;;;;958.83;895.22;;;;;;;18.07;59.84;101816.00;697040;28;45236;-61
2022/08/31 01:27:57;;;;;;;965.28;901.45;;;;;;;18.08;59.63;101812.25;693796;28;115161;-60
2022/08/31 01:28:18;;;;;;;963.30;899.58;;;;;;;18.07;59.71;101808.69;690903;28;68068;-62
2022/08/31 01:28:41;;;;;;;963.03;899.40;;;;;;;18.08;59.79;101817.72;693401;28;1260;-61
2022/08/31 01:29:04;;;;;;;966.42;902.55;;;;;;;18.07;59.82;101811.41;692882;28;45928;-61
2022/08/31 01:29:25;;;;;;;963.63;899.92;;;;;;;18.07;59.65;101810.53;693852;28;69386;-63
2022/08/31 01:29:47;;;;;;;957.95;894.47;;;;;;;18.06;59.66;101817.06;694947;28;22384;-62
2022/08/31 01:30:11;;;;;;;959.40;895.83;;;;;;;18.01;59.89;101810.31;694465;28;69384;-60
2022/08/31 01:30:33;;;;;;;963.90;900.10;;;;;;;18.04;59.64;101821.88;695526;28;90387;-63
2022/08/31 01:31:00;;;;;;;962.25;898.50;;;;;;;17.99;59.85;101809.69;698078;28;22458;-61
2022/08/31 01:31:26;;;;;;;977.70;913.35;;;;;;;18.00;59.78;101819.53;690762;28;137868;-61
2022/08/31 01:31:49;;;;;;;969.08;905.08;;;;;;;17.99;59.87;101814.28;687748;28;136121;-61
2022/08/31 01:32:10;;;;;;;959.67;896.03;;;;;;;17.96;60.08;101810.06;691617;28;46383;-62
2022/08/31 01:32:32;;;;;;;964.30;900.55;;;;;;;17.98;60.01;101816.19;692468;28;22417;-62
2022/08/31 01:32:54;;;;;;;966.38;902.55;;;;;;;17.98;59.79;101812.59;694651;28;22423;-62
2022/08/31 01:33:15;;;;;;;975.58;911.35;;;;;;;17.97;59.93;101828.13;696930;28;46428;-62
2022/08/31 01:33:38;;;;;;;962.67;898.95;;;;;;;17.96;59.74;101814.69;701394;28;22415;-60
2022/08/31 01:33:59;;;;;;;965.72;901.85;;;;;;;17.96;59.95;101825.59;696248;28;69406;-62
2022/08/31 01:34:21;;;;;;;959.65;895.97;;;;;;;17.95;60.06;101815.75;700448;28;22404;-62
2022/08/31 01:34:42;;;;;;;968.75;904.88;;;;;;;17.93;60.24;101826.88;695465;28;67494;-60
2022/08/31 01:35:06;;;;;;;966.75;902.83;;;;;;;17.91;60.05;101822.63;693015;28;23460;-62
2022/08/31 01:35:28;;;;;;;969.28;905.42;;;;;;;17.92;60.08;101824.34;692809;28;92201;-64
2022/08/31 01:35:50;;;;;;;966.72;902.88;;;;;;;17.90;60.22;101816.34;692842;28;46324;-62
2022/08/31 01:36:14;;;;;;;965.65;901.72;;;;;;;17.90;60.32;101827.28;692479;28;21372;-60
2022/08/31 01:36:36;;;;;;;959.33;895.63;;;;;;;17.92;60.40;101824.34;688726;28;90442;-63
2022/08/31 01:36:58;;;;;;;953.78;890.08;;;;;;;17.94;60.37;101822.25;687961;28;69314;-60
2022/08/31 01:37:19;;;;;;;967.15;903.05;;;;;;;17.94;60.15;101825.81;689490;28;23701;-63
2022/08/31 01:37:44;;;;;;;967.88;903.95;;;;;;;17.95;60.22;101827.50;687263;28;90284;-63
2022/08/31 01:38:09;;;;;;;973.17;909.08;;;;;;;17.95;60.19;101824.78;689396;28;69602;-62
2022/08/31 01:38:30;;;;;;;967.88;904.00;;;;;;;17.95;60.21;101818.47;690707;28;115141;-63
2022/08/31 01:38:54;;;;;;;958.13;894.63;;;;;;;17.95;60.15;101827.50;693387;28;69109;-63
2022/08/31 01:39:16;;;;;;;960.10;896.55;;;;;;;17.94;60.27;101825.81;695862;28;44365;-62
2022/08/31 01:39:37;;;;;;;959.70;896.22;;;;;;;17.95;60.43;101829.41;694134;28;44363;-63
2022/08/31 01:39:59;;;;;;;964.95;901.08;;;;;;;17.94;60.13;101816.78;696300;28;22197;-62
2022/08/31 01:40:21;;;;;;;952.75;889.40;;;;;;;17.94;60.14;101827.72;697945;28;22418;-62
2022/08/31 01:40:45;;;;;;;958.00;894.38;;;;;;;17.93;60.19;101824.13;692612;28;90698;-64
2022/08/31 01:41:07;;;;;;;969.15;905.13;;;;;;;17.93;60.19;101824.13;690623;28;68288;-63
2022/08/31 01:41:29;;;;;;;964.92;901.08;;;;;;;17.93;60.33;101818.66;689256;28;45269;-62
2022/08/31 01:41:50;;;;;;;965.58;901.75;;;;;;;17.93;60.35;101826.00;688312;28;45467;-63
2022/08/31 01:42:14;;;;;;;958.40;894.78;;;;;;;17.94;60.27;101830.44;688469;28;45212;-62
2022/08/31 01:42:35;;;;;;;955.10;891.60;;;;;;;17.93;60.19;101828.75;689455;28;69517;-62
2022/08/31 01:42:56;;;;;;;961.38;897.63;;;;;;;17.93;60.27;101826.88;693168;28;22422;-63
2022/08/31 01:43:17;;;;;;;965.80;901.80;;;;;;;17.93;60.21;101826.00;695311;28;22109;-63
2022/08/31 01:43:40;;;;;;;964.92;901.05;;;;;;;17.92;60.20;101825.16;693216;28;21522;-62
2022/08/31 01:44:01;;;;;;;958.38;894.65;;;;;;;17.92;60.39;101825.16;693212;28;67516;-62
2022/08/31 01:44:24;;;;;;;955.95;892.42;;;;;;;17.92;60.31;101821.59;694862;28;46422;-62
2022/08/31 01:44:46;;;;;;;957.60;894.10;;;;;;;17.91;60.17;101822.63;691396;28;46394;-63
2022/08/31 01:45:08;;;;;;;952.08;888.72;;;;;;;17.90;60.25;101821.81;691611;28;45055;-62
2022/08/31 01:45:31;;;;;;;962.25;898.38;;;;;;;17.90;60.30;101827.28;688397;28;69195;-62